createdAt,value
2023-05-19T00:00:09.291Z,13.17
2023-05-19T00:01:09.276Z,13.18
2023-05-19T00:02:09.555Z,13.17
2023-05-19T00:03:09.526Z,13.17
2023-05-19T00:04:09.235Z,13.17
2023-05-19T00:05:09.231Z,13.17
2023-05-19T00:06:09.255Z,13.17
2023-05-19T00:07:09.220Z,13.15
2023-05-19T00:08:09.186Z,13.17
2023-05-19T00:09:09.170Z,13.15
2023-05-19T00:10:09.152Z,13.14
2023-05-19T00:11:09.148Z,13.15
2023-05-19T00:12:09.134Z,13.17
2023-05-19T00:13:09.124Z,13.14
2023-05-19T00:14:09.101Z,13.14
2023-05-19T00:15:09.088Z,13.14
2023-05-19T00:16:09.150Z,13.14
2023-05-19T00:17:09.069Z,13.14
2023-05-19T00:18:09.151Z,13.14
2023-05-19T00:19:09.046Z,13.14
2023-05-19T00:20:09.031Z,13.14
2023-05-19T00:21:09.056Z,13.14
2023-05-19T00:22:09.006Z,13.12
2023-05-19T00:23:09.010Z,13.14
2023-05-19T00:24:08.974Z,13.12
2023-05-19T00:25:08.964Z,13.11
2023-05-19T00:26:08.995Z,13.12
2023-05-19T00:27:08.930Z,13.12
2023-05-19T00:28:08.960Z,13.11
2023-05-19T00:29:08.907Z,13.11
2023-05-19T00:30:08.903Z,13.11
2023-05-19T00:31:08.877Z,13.11
2023-05-19T00:32:09.036Z,13.11
2023-05-19T00:33:08.911Z,13.11
2023-05-19T00:34:08.849Z,13.09
2023-05-19T00:35:08.829Z,13.09
2023-05-19T00:36:08.832Z,13.09
2023-05-19T00:37:08.814Z,13.11
2023-05-19T00:38:08.798Z,13.09
2023-05-19T00:39:08.802Z,13.11
2023-05-19T00:40:08.776Z,13.09
2023-05-19T00:41:08.749Z,13.07
2023-05-19T00:42:08.745Z,13.09
2023-05-19T00:43:08.724Z,13.07
2023-05-19T00:44:08.710Z,13.07
2023-05-19T00:45:08.700Z,13.07
2023-05-19T00:46:08.705Z,13.07
2023-05-19T00:47:08.810Z,13.07
2023-05-19T00:48:08.699Z,13.07
2023-05-19T00:49:08.648Z,13.07
2023-05-19T00:50:08.634Z,13.06
2023-05-19T00:51:08.620Z,13.06
2023-05-19T00:52:08.609Z,13.06
2023-05-19T00:53:08.593Z,13.06
2023-05-19T00:54:08.579Z,13.06
2023-05-19T00:55:08.597Z,13.06
2023-05-19T00:56:08.560Z,13.04
2023-05-19T00:57:08.541Z,13.04
2023-05-19T00:58:08.527Z,13.04
2023-05-19T00:59:08.514Z,13.04
2023-05-19T01:00:08.506Z,13.06
2023-05-19T01:01:08.559Z,13.04
2023-05-19T01:02:08.473Z,13.04
2023-05-19T01:03:08.571Z,13.03
2023-05-19T01:04:08.601Z,13.04
2023-05-19T01:05:08.432Z,13.04
2023-05-19T01:06:08.486Z,13.03
2023-05-19T01:07:08.405Z,13.03
2023-05-19T01:08:08.395Z,13.03
2023-05-19T01:09:08.381Z,13.04
2023-05-19T01:10:08.377Z,13.04
2023-05-19T01:11:08.463Z,13.02
2023-05-19T01:12:08.342Z,13.03
2023-05-19T01:13:08.331Z,13.03
2023-05-19T01:14:08.321Z,13.02
2023-05-19T01:15:08.303Z,13.03
2023-05-19T01:16:08.334Z,13.03
2023-05-19T01:17:08.281Z,13.02
2023-05-19T01:18:08.343Z,13.02
2023-05-19T01:19:08.328Z,13.02
2023-05-19T01:20:08.254Z,13.02
2023-05-19T01:21:08.232Z,13.00
2023-05-19T01:22:08.214Z,13.00
2023-05-19T01:23:08.199Z,13.00
2023-05-19T01:24:08.190Z,13.00
2023-05-19T01:25:08.173Z,13.02
2023-05-19T01:26:08.158Z,13.02
2023-05-19T01:27:08.183Z,12.99
2023-05-19T01:28:08.141Z,13.00
2023-05-19T01:29:08.120Z,13.00
2023-05-19T01:30:08.107Z,12.99
2023-05-19T01:31:08.095Z,12.99
2023-05-19T01:32:08.234Z,13.00
2023-05-19T01:33:08.150Z,12.96
2023-05-19T01:34:08.055Z,12.99
2023-05-19T01:35:08.047Z,12.97
2023-05-19T01:36:08.028Z,12.99
2023-05-19T01:37:08.045Z,12.97
2023-05-19T01:38:08.008Z,12.96
2023-05-19T01:39:07.997Z,12.99
2023-05-19T01:40:07.977Z,12.96
2023-05-19T01:41:07.960Z,12.97
2023-05-19T01:42:07.950Z,12.97
2023-05-19T01:43:07.973Z,12.97
2023-05-19T01:44:07.938Z,12.99
2023-05-19T01:45:07.910Z,12.97
2023-05-19T01:46:08.010Z,12.96
2023-05-19T01:47:07.886Z,12.96
2023-05-19T01:48:10.611Z,12.97
2023-05-19T01:49:07.889Z,12.96
2023-05-19T01:50:07.850Z,12.97
2023-05-19T01:51:07.833Z,12.97
2023-05-19T01:52:07.822Z,12.97
2023-05-19T01:53:07.822Z,12.96
2023-05-19T01:54:07.794Z,12.96
2023-05-19T01:55:07.779Z,12.96
2023-05-19T01:56:07.771Z,12.95
2023-05-19T01:57:07.753Z,12.95
2023-05-19T01:58:07.743Z,12.95
2023-05-19T01:59:07.756Z,12.96
2023-05-19T02:00:07.743Z,12.95
2023-05-19T02:01:07.734Z,12.96
2023-05-19T02:02:07.691Z,12.95
2023-05-19T02:03:07.780Z,12.95
2023-05-19T02:04:07.751Z,12.95
2023-05-19T02:05:07.652Z,12.95
2023-05-19T02:06:07.663Z,12.95
2023-05-19T02:07:07.633Z,12.95
2023-05-19T02:08:07.615Z,12.95
2023-05-19T02:09:07.609Z,12.93
2023-05-19T02:10:07.599Z,12.93
2023-05-19T02:11:07.572Z,12.95
2023-05-19T02:12:07.561Z,12.93
2023-05-19T02:13:07.556Z,12.93
2023-05-19T02:14:07.534Z,12.92
2023-05-19T02:15:07.553Z,12.93
2023-05-19T02:16:07.627Z,12.92
2023-05-19T02:17:07.498Z,12.93
2023-05-19T02:18:07.478Z,12.92
2023-05-19T02:19:07.545Z,12.93
2023-05-19T02:20:07.450Z,12.92
2023-05-19T02:21:07.437Z,12.93
2023-05-19T02:22:07.422Z,12.92
2023-05-19T02:23:07.407Z,12.89
2023-05-19T02:24:07.425Z,12.92
2023-05-19T02:25:07.387Z,12.89
2023-05-19T02:26:07.372Z,12.92
2023-05-19T02:27:07.354Z,12.89
2023-05-19T02:28:07.358Z,12.89
2023-05-19T02:29:07.335Z,12.92
2023-05-19T02:30:07.357Z,12.89
2023-05-19T02:31:07.326Z,12.89
2023-05-19T02:32:07.369Z,12.89
2023-05-19T02:33:07.323Z,12.89
2023-05-19T02:34:07.266Z,12.89
2023-05-19T02:35:07.250Z,12.89
2023-05-19T02:36:07.237Z,12.88
2023-05-19T02:37:07.238Z,12.88
2023-05-19T02:38:07.213Z,12.89
2023-05-19T02:39:07.200Z,12.89
2023-05-19T02:40:07.190Z,12.88
2023-05-19T02:41:07.174Z,12.89
2023-05-19T02:42:07.157Z,12.88
2023-05-19T02:43:07.146Z,12.88
2023-05-19T02:44:07.130Z,12.87
2023-05-19T02:45:07.119Z,12.88
2023-05-19T02:46:07.124Z,12.88
2023-05-19T02:47:07.130Z,12.88
2023-05-19T02:48:07.110Z,12.88
2023-05-19T02:49:07.067Z,12.87
2023-05-19T02:50:07.053Z,12.87
2023-05-19T02:51:07.034Z,12.85
2023-05-19T02:52:07.031Z,12.85
2023-05-19T02:53:07.023Z,12.85
2023-05-19T02:54:07.002Z,12.87
2023-05-19T02:55:06.980Z,12.85
2023-05-19T02:56:06.973Z,12.85
2023-05-19T02:57:06.953Z,12.85
2023-05-19T02:58:06.944Z,12.85
2023-05-19T02:59:06.933Z,12.85
2023-05-19T03:00:06.927Z,12.84
2023-05-19T03:01:06.907Z,12.85
2023-05-19T03:02:07.020Z,12.85
2023-05-19T03:03:07.067Z,12.84
2023-05-19T03:04:06.947Z,12.85
2023-05-19T03:05:06.849Z,12.85
2023-05-19T03:06:06.839Z,12.84
2023-05-19T03:07:06.828Z,12.85
2023-05-19T03:08:06.811Z,12.84
2023-05-19T03:09:06.811Z,12.84
2023-05-19T03:10:06.820Z,12.84
2023-05-19T03:11:06.772Z,12.85
2023-05-19T03:12:06.755Z,12.84
2023-05-19T03:13:06.743Z,12.84
2023-05-19T03:14:06.728Z,12.85
2023-05-19T03:15:06.711Z,12.84
2023-05-19T03:16:06.796Z,12.84
2023-05-19T03:17:06.698Z,12.84
2023-05-19T03:18:06.713Z,12.84
2023-05-19T03:19:06.713Z,12.84
2023-05-19T03:20:06.658Z,12.84
2023-05-19T03:21:06.635Z,12.85
2023-05-19T03:22:06.624Z,12.84
2023-05-19T03:23:06.618Z,12.84
2023-05-19T03:24:06.633Z,12.84
2023-05-19T03:25:06.588Z,12.82
2023-05-19T03:26:06.573Z,12.82
2023-05-19T03:27:06.565Z,12.82
2023-05-19T03:28:06.540Z,12.82
2023-05-19T03:29:06.529Z,12.82
2023-05-19T03:30:06.903Z,12.82
2023-05-19T03:31:06.503Z,12.84
2023-05-19T03:32:06.504Z,12.82
2023-05-19T03:33:06.529Z,12.82
2023-05-19T03:34:06.468Z,12.82
2023-05-19T03:35:06.473Z,12.81
2023-05-19T03:36:06.438Z,12.82
2023-05-19T03:37:06.424Z,12.82
2023-05-19T03:38:06.413Z,12.81
2023-05-19T03:39:06.401Z,12.81
2023-05-19T03:40:06.384Z,12.82
2023-05-19T03:41:06.368Z,12.81
2023-05-19T03:42:06.361Z,12.82
2023-05-19T03:43:06.344Z,12.82
2023-05-19T03:44:06.332Z,12.82
2023-05-19T03:45:06.318Z,12.82
2023-05-19T03:46:06.343Z,12.81
2023-05-19T03:47:06.296Z,12.82
2023-05-19T03:48:06.293Z,12.79
2023-05-19T03:49:06.271Z,12.82
2023-05-19T03:50:06.255Z,12.81
2023-05-19T03:51:06.284Z,12.82
2023-05-19T03:52:06.224Z,12.81
2023-05-19T03:53:06.211Z,12.81
2023-05-19T03:54:06.204Z,12.82
2023-05-19T03:55:06.185Z,12.81
2023-05-19T03:56:06.174Z,12.82
2023-05-19T03:57:06.177Z,12.82
2023-05-19T03:58:06.163Z,12.81
2023-05-19T03:59:06.131Z,12.81
2023-05-19T04:00:06.126Z,12.79
2023-05-19T04:01:06.105Z,12.81
2023-05-19T04:02:06.410Z,12.81
2023-05-19T04:03:06.171Z,12.81
2023-05-19T04:04:06.094Z,12.81
2023-05-19T04:05:06.052Z,12.81
2023-05-19T04:06:06.038Z,12.81
2023-05-19T04:07:06.147Z,12.82
2023-05-19T04:08:06.011Z,12.81
2023-05-19T04:09:05.996Z,12.81
2023-05-19T04:10:05.982Z,12.82
2023-05-19T04:11:05.972Z,12.82
2023-05-19T04:12:05.955Z,12.81
2023-05-19T04:13:05.944Z,12.82
2023-05-19T04:14:05.937Z,12.84
2023-05-19T04:15:05.929Z,12.82
2023-05-19T04:16:05.937Z,12.82
2023-05-19T04:17:05.897Z,12.82
2023-05-19T04:18:05.904Z,12.84
2023-05-19T04:19:05.952Z,12.84
2023-05-19T04:20:05.855Z,12.84
2023-05-19T04:21:05.852Z,12.82
2023-05-19T04:22:05.827Z,12.84
2023-05-19T04:23:05.838Z,12.84
2023-05-19T04:24:05.800Z,12.84
2023-05-19T04:25:05.796Z,12.84
2023-05-19T04:26:05.771Z,12.84
2023-05-19T04:27:05.756Z,12.85
2023-05-19T04:28:05.747Z,12.85
2023-05-19T04:29:05.731Z,12.84
2023-05-19T04:30:05.730Z,12.85
2023-05-19T04:31:05.732Z,12.85
2023-05-19T04:32:05.692Z,12.84
2023-05-19T04:33:05.731Z,12.85
2023-05-19T04:34:05.665Z,12.85
2023-05-19T04:35:05.656Z,12.85
2023-05-19T04:36:05.639Z,12.85
2023-05-19T04:37:05.626Z,12.87
2023-05-19T04:38:05.624Z,12.87
2023-05-19T04:39:05.790Z,12.88
2023-05-19T04:40:05.596Z,12.88
2023-05-19T04:41:05.576Z,12.88
2023-05-19T04:42:05.559Z,12.88
2023-05-19T04:43:05.547Z,12.92
2023-05-19T04:44:05.529Z,12.92
2023-05-19T04:45:05.521Z,12.95
2023-05-19T04:46:05.519Z,12.97
2023-05-19T04:47:05.558Z,12.99
2023-05-19T04:48:05.520Z,13.02
2023-05-19T04:49:05.468Z,13.06
2023-05-19T04:50:05.452Z,13.07
2023-05-19T04:51:05.448Z,13.04
2023-05-19T04:52:05.430Z,13.04
2023-05-19T04:53:05.414Z,13.07
2023-05-19T04:54:05.408Z,13.11
2023-05-19T04:55:05.482Z,13.17
2023-05-19T04:56:05.380Z,13.22
2023-05-19T04:57:05.359Z,13.24
2023-05-19T04:58:05.346Z,13.25
2023-05-19T04:59:05.347Z,13.24
2023-05-19T05:00:05.323Z,13.27
2023-05-19T05:01:05.310Z,13.32
2023-05-19T05:02:05.364Z,13.35
2023-05-19T05:03:05.509Z,13.36
2023-05-19T05:04:05.415Z,13.39
2023-05-19T05:05:05.263Z,13.40
2023-05-19T05:06:05.240Z,13.39
2023-05-19T05:07:05.228Z,13.36
2023-05-19T05:08:05.216Z,13.32
2023-05-19T05:09:05.202Z,13.29
2023-05-19T05:10:05.185Z,13.30
2023-05-19T05:11:05.202Z,13.32
2023-05-19T05:12:05.162Z,13.36
2023-05-19T05:13:05.147Z,13.37
2023-05-19T05:14:05.141Z,13.39
2023-05-19T05:15:05.127Z,13.39
2023-05-19T05:16:05.175Z,13.42
2023-05-19T05:17:05.090Z,13.43
2023-05-19T05:18:05.139Z,13.45
2023-05-19T05:19:05.162Z,13.48
2023-05-19T05:20:05.051Z,13.46
2023-05-19T05:21:05.038Z,13.46
2023-05-19T05:22:05.058Z,13.45
2023-05-19T05:23:05.070Z,13.43
2023-05-19T05:24:05.001Z,13.40
2023-05-19T05:25:05.079Z,13.40
2023-05-19T05:26:04.974Z,13.40
2023-05-19T05:27:04.994Z,13.39
2023-05-19T05:28:04.988Z,13.45
2023-05-19T05:29:04.966Z,13.48
2023-05-19T05:30:04.917Z,13.51
2023-05-19T05:31:04.921Z,13.53
2023-05-19T05:32:04.920Z,13.51
2023-05-19T05:33:04.999Z,13.53
2023-05-19T05:34:04.873Z,13.53
2023-05-19T05:35:04.855Z,13.54
2023-05-19T05:36:04.840Z,13.54
2023-05-19T05:37:04.837Z,13.55
2023-05-19T05:38:04.823Z,13.55
2023-05-19T05:39:04.803Z,13.55
2023-05-19T05:40:04.839Z,13.57
2023-05-19T05:41:04.777Z,13.57
2023-05-19T05:42:04.762Z,13.57
2023-05-19T05:43:04.777Z,13.58
2023-05-19T05:44:04.739Z,13.58
2023-05-19T05:45:04.727Z,13.61
2023-05-19T05:46:04.789Z,13.64
2023-05-19T05:47:04.701Z,13.66
2023-05-19T05:48:04.712Z,13.64
2023-05-19T05:49:04.678Z,13.69
2023-05-19T05:50:04.657Z,13.68
2023-05-19T05:51:04.648Z,13.70
2023-05-19T05:52:06.538Z,13.68
2023-05-19T05:53:04.620Z,13.66
2023-05-19T05:54:04.607Z,13.66
2023-05-19T05:55:04.594Z,13.66
2023-05-19T05:56:04.578Z,13.70
2023-05-19T05:57:04.571Z,13.72
2023-05-19T05:58:04.559Z,13.72
2023-05-19T05:59:04.584Z,13.72
2023-05-19T06:00:04.535Z,13.69
2023-05-19T06:01:04.537Z,13.70
2023-05-19T06:02:04.532Z,13.72
2023-05-19T06:03:04.572Z,13.75
2023-05-19T06:04:04.486Z,13.79
2023-05-19T06:05:04.546Z,13.82
2023-05-19T06:06:04.555Z,13.80
2023-05-19T06:07:04.439Z,13.83
2023-05-19T06:08:04.426Z,13.86
2023-05-19T06:09:04.426Z,13.90
2023-05-19T06:10:04.401Z,13.88
2023-05-19T06:11:04.389Z,13.88
2023-05-19T06:12:04.375Z,13.86
2023-05-19T06:13:04.380Z,13.87
2023-05-19T06:14:04.346Z,13.88
2023-05-19T06:15:04.380Z,13.87
2023-05-19T06:16:04.401Z,13.87
2023-05-19T06:17:04.320Z,13.83
2023-05-19T06:18:04.331Z,13.83
2023-05-19T06:19:04.334Z,13.86
2023-05-19T06:20:04.264Z,13.86
2023-05-19T06:21:04.260Z,13.86
2023-05-19T06:22:04.241Z,13.86
2023-05-19T06:23:04.230Z,13.83
2023-05-19T06:24:04.215Z,13.83
2023-05-19T06:25:04.223Z,13.83
2023-05-19T06:26:04.197Z,13.86
2023-05-19T06:27:04.177Z,13.83
2023-05-19T06:28:04.163Z,13.82
2023-05-19T06:29:04.163Z,13.82
2023-05-19T06:30:04.138Z,13.83
2023-05-19T06:31:04.182Z,13.82
2023-05-19T06:32:04.127Z,13.80
2023-05-19T06:33:04.136Z,13.82
2023-05-19T06:34:04.089Z,13.82
2023-05-19T06:35:04.088Z,13.83
2023-05-19T06:36:04.070Z,13.83
2023-05-19T06:37:04.056Z,13.82
2023-05-19T06:38:04.037Z,13.82
2023-05-19T06:39:04.030Z,13.79
2023-05-19T06:40:04.017Z,13.78
2023-05-19T06:41:03.996Z,13.79
2023-05-19T06:42:03.984Z,13.79
2023-05-19T06:43:03.969Z,13.79
2023-05-19T06:44:03.959Z,13.80
2023-05-19T06:45:03.943Z,13.79
2023-05-19T06:46:03.937Z,13.79
2023-05-19T06:47:04.057Z,13.82
2023-05-19T06:48:03.961Z,13.78
2023-05-19T06:49:03.906Z,13.78
2023-05-19T06:50:03.889Z,13.73
2023-05-19T06:51:03.876Z,13.75
2023-05-19T06:52:03.856Z,13.75
2023-05-19T06:53:03.846Z,13.72
2023-05-19T06:54:03.830Z,13.73
2023-05-19T06:55:03.821Z,13.75
2023-05-19T06:56:03.802Z,13.73
2023-05-19T06:57:03.786Z,13.73
2023-05-19T06:58:03.773Z,13.73
2023-05-19T06:59:03.763Z,13.70
2023-05-19T07:00:03.748Z,13.70
2023-05-19T07:01:03.740Z,13.70
2023-05-19T07:02:03.791Z,13.72
2023-05-19T07:03:03.820Z,13.72
2023-05-19T07:04:03.779Z,13.72
2023-05-19T07:05:03.691Z,13.70
2023-05-19T07:06:04.565Z,13.75
2023-05-19T07:07:03.664Z,13.75
2023-05-19T07:08:03.646Z,13.78
2023-05-19T07:09:03.631Z,13.75
2023-05-19T07:10:03.650Z,13.73
2023-05-19T07:11:03.631Z,13.70
2023-05-19T07:12:03.607Z,13.73
2023-05-19T07:13:03.592Z,13.73
2023-05-19T07:14:03.574Z,13.76
2023-05-19T07:15:03.574Z,13.73
2023-05-19T07:16:03.557Z,13.73
2023-05-19T07:17:03.527Z,13.72
2023-05-19T07:18:03.607Z,13.73
2023-05-19T07:19:03.552Z,13.75
2023-05-19T07:20:03.487Z,13.75
2023-05-19T07:21:03.483Z,13.75
2023-05-19T07:22:03.466Z,13.76
2023-05-19T07:23:03.470Z,13.78
2023-05-19T07:24:03.449Z,13.78
2023-05-19T07:25:03.438Z,13.76
2023-05-19T07:26:03.406Z,13.75
2023-05-19T07:27:03.400Z,13.72
2023-05-19T07:28:03.382Z,13.70
2023-05-19T07:29:03.369Z,13.70
2023-05-19T07:30:03.355Z,13.70
2023-05-19T07:31:03.348Z,13.72
2023-05-19T07:32:03.458Z,13.70
2023-05-19T07:33:03.358Z,13.70
2023-05-19T07:34:03.338Z,13.69
2023-05-19T07:35:03.331Z,13.69
2023-05-19T07:36:03.292Z,13.69
2023-05-19T07:37:03.265Z,13.69
2023-05-19T07:38:03.251Z,13.68
2023-05-19T07:39:03.353Z,13.68
2023-05-19T07:40:03.242Z,13.68
2023-05-19T07:41:03.209Z,13.69
2023-05-19T07:42:03.195Z,13.68
2023-05-19T07:43:03.181Z,13.64
2023-05-19T07:44:03.174Z,13.64
2023-05-19T07:45:03.158Z,13.62
2023-05-19T07:46:03.193Z,13.68
2023-05-19T07:47:03.137Z,13.68
2023-05-19T07:48:03.151Z,13.66
2023-05-19T07:49:03.106Z,13.64
2023-05-19T07:50:03.123Z,13.62
2023-05-19T07:51:03.187Z,13.62
2023-05-19T07:52:03.069Z,13.64
2023-05-19T07:53:03.053Z,13.66
2023-05-19T07:54:03.045Z,13.64
2023-05-19T07:55:03.029Z,13.62
2023-05-19T07:56:03.009Z,13.61
2023-05-19T07:57:03.005Z,13.61
2023-05-19T07:58:02.988Z,13.60
2023-05-19T07:59:02.977Z,13.60
2023-05-19T08:00:02.961Z,13.60
2023-05-19T08:01:02.965Z,13.60
2023-05-19T08:02:03.002Z,13.57
2023-05-19T08:03:03.049Z,13.57
2023-05-19T08:04:02.969Z,13.57
2023-05-19T08:05:02.916Z,13.57
2023-05-19T08:06:02.881Z,13.58
2023-05-19T08:07:02.979Z,13.58
2023-05-19T08:08:02.859Z,13.57
2023-05-19T08:09:02.845Z,13.57
2023-05-19T08:10:02.830Z,13.57
2023-05-19T08:11:02.818Z,13.57
2023-05-19T08:12:02.803Z,13.57
2023-05-19T08:13:02.799Z,13.55
2023-05-19T08:14:02.790Z,13.57
2023-05-19T08:15:02.767Z,13.57
2023-05-19T08:16:02.903Z,13.57
2023-05-19T08:17:02.744Z,13.57
2023-05-19T08:18:02.787Z,13.60
2023-05-19T08:19:02.872Z,13.62
2023-05-19T08:20:02.710Z,13.62
2023-05-19T08:21:02.707Z,13.64
2023-05-19T08:22:02.674Z,13.64
2023-05-19T08:23:02.716Z,13.66
2023-05-19T08:24:02.691Z,13.66
2023-05-19T08:25:02.640Z,13.68
2023-05-19T08:26:02.631Z,13.68
2023-05-19T08:27:02.618Z,13.68
2023-05-19T08:28:02.602Z,13.66
2023-05-19T08:29:02.600Z,13.66
2023-05-19T08:30:02.586Z,13.68
2023-05-19T08:31:02.615Z,13.68
2023-05-19T08:32:02.547Z,13.66
2023-05-19T08:33:02.592Z,13.69
2023-05-19T08:34:02.520Z,13.69
2023-05-19T08:35:02.531Z,13.70
2023-05-19T08:36:02.505Z,13.69
2023-05-19T08:37:02.485Z,13.69
2023-05-19T08:38:02.472Z,13.66
2023-05-19T08:39:02.648Z,13.68
2023-05-19T08:40:02.456Z,13.69
2023-05-19T08:41:02.445Z,13.69
2023-05-19T08:42:02.537Z,13.73
2023-05-19T08:43:02.408Z,13.70
2023-05-19T08:44:02.404Z,13.72
2023-05-19T08:45:02.399Z,13.70
2023-05-19T08:46:02.366Z,13.72
2023-05-19T08:47:02.434Z,13.73
2023-05-19T08:48:02.407Z,13.73
2023-05-19T08:49:02.326Z,13.72
2023-05-19T08:50:02.312Z,13.72
2023-05-19T08:51:02.299Z,13.75
2023-05-19T08:52:02.285Z,13.75
2023-05-19T08:53:02.276Z,13.73
2023-05-19T08:54:02.267Z,13.75
2023-05-19T08:55:02.336Z,13.73
2023-05-19T08:56:02.233Z,13.73
2023-05-19T08:57:02.223Z,13.75
2023-05-19T08:58:02.212Z,13.76
2023-05-19T08:59:02.188Z,13.75
2023-05-19T09:00:02.182Z,13.76
2023-05-19T09:01:02.184Z,13.79
2023-05-19T09:02:02.151Z,13.80
2023-05-19T09:04:02.261Z,13.79
2023-05-19T09:05:02.158Z,13.80
2023-05-19T09:06:02.182Z,13.80
2023-05-19T09:07:02.100Z,13.78
2023-05-19T09:08:02.077Z,13.76
2023-05-19T09:09:02.068Z,13.79
2023-05-19T09:10:02.058Z,13.80
2023-05-19T09:11:02.065Z,13.83
2023-05-19T09:12:02.021Z,13.82
2023-05-19T09:13:02.008Z,13.80
2023-05-19T09:14:01.994Z,13.79
2023-05-19T09:15:01.983Z,13.79
2023-05-19T09:16:01.989Z,13.80
2023-05-19T09:17:01.988Z,13.79
2023-05-19T09:18:01.971Z,13.80
2023-05-19T09:19:01.971Z,13.80
2023-05-19T09:20:01.920Z,13.80
2023-05-19T09:21:01.908Z,13.80
2023-05-19T09:22:01.892Z,13.79
2023-05-19T09:23:01.881Z,13.82
2023-05-19T09:24:01.865Z,13.88
2023-05-19T09:25:01.874Z,13.91
2023-05-19T09:26:01.837Z,13.94
2023-05-19T09:27:01.847Z,13.97
2023-05-19T09:28:01.823Z,13.97
2023-05-19T09:29:01.797Z,13.95
2023-05-19T09:30:01.788Z,13.93
2023-05-19T09:31:01.775Z,13.93
2023-05-19T09:32:01.784Z,13.91
2023-05-19T09:33:01.790Z,13.94
2023-05-19T09:34:01.763Z,13.95
2023-05-19T09:35:01.755Z,13.94
2023-05-19T09:36:01.718Z,13.95
2023-05-19T09:37:01.698Z,13.94
2023-05-19T09:38:01.682Z,13.93
2023-05-19T09:39:01.669Z,13.95
2023-05-19T09:40:01.652Z,13.95
2023-05-19T09:41:01.643Z,13.98
2023-05-19T09:42:01.626Z,13.98
2023-05-19T09:43:01.678Z,13.97
2023-05-19T09:44:01.598Z,13.94
2023-05-19T09:45:01.582Z,13.97
2023-05-19T09:46:01.757Z,13.98
2023-05-19T09:47:01.551Z,14.00
2023-05-19T09:48:01.590Z,13.98
2023-05-19T09:49:01.530Z,13.98
2023-05-19T09:50:01.570Z,13.94
2023-05-19T09:51:01.498Z,13.90
2023-05-19T09:52:01.498Z,13.88
2023-05-19T09:53:01.483Z,13.93
2023-05-19T09:54:01.465Z,13.91
2023-05-19T09:55:01.448Z,13.94
2023-05-19T09:56:01.432Z,13.93
2023-05-19T09:57:01.430Z,13.90
2023-05-19T09:58:01.406Z,13.90
2023-05-19T09:59:01.410Z,13.93
2023-05-19T10:00:01.384Z,13.91
2023-05-19T10:01:01.391Z,13.83
2023-05-19T10:02:01.404Z,13.83
2023-05-19T10:03:01.351Z,13.83
2023-05-19T10:04:02.207Z,13.90
2023-05-19T10:05:01.338Z,13.95
2023-05-19T10:06:01.314Z,14.00
2023-05-19T10:07:01.283Z,14.03
2023-05-19T10:08:01.278Z,14.07
2023-05-19T10:09:01.255Z,14.07
2023-05-19T10:10:01.248Z,14.07
2023-05-19T10:11:01.307Z,14.09
2023-05-19T10:12:01.217Z,14.07
2023-05-19T10:13:01.204Z,14.06
2023-05-19T10:14:01.190Z,14.07
2023-05-19T10:15:01.214Z,14.12
2023-05-19T10:16:01.622Z,14.14
2023-05-19T10:17:01.217Z,14.12
2023-05-19T10:18:01.195Z,14.01
2023-05-19T10:19:01.209Z,13.95
2023-05-19T10:20:01.107Z,13.97
2023-05-19T10:21:01.095Z,13.97
2023-05-19T10:22:01.095Z,13.98
2023-05-19T10:23:01.077Z,13.97
2023-05-19T10:24:01.061Z,14.00
2023-05-19T10:25:01.044Z,14.01
2023-05-19T10:26:01.033Z,13.97
2023-05-19T10:27:01.090Z,14.01
2023-05-19T10:28:01.006Z,14.10
2023-05-19T10:29:00.994Z,14.13
2023-05-19T10:30:00.980Z,14.13
2023-05-19T10:31:01.062Z,14.13
2023-05-19T10:32:00.979Z,14.16
2023-05-19T10:33:01.012Z,14.14
2023-05-19T10:34:00.942Z,14.16
2023-05-19T10:35:00.931Z,14.19
2023-05-19T10:36:00.902Z,14.19
2023-05-19T10:37:00.886Z,14.20
2023-05-19T10:38:00.871Z,14.19
2023-05-19T10:39:00.855Z,14.21
2023-05-19T10:40:00.844Z,14.24
2023-05-19T10:41:00.838Z,14.24
2023-05-19T10:42:00.817Z,14.20
2023-05-19T10:43:00.807Z,14.19
2023-05-19T10:44:00.791Z,14.21
2023-05-19T10:45:00.797Z,14.25
2023-05-19T10:46:00.774Z,14.21
2023-05-19T10:47:00.815Z,14.21
2023-05-19T10:48:00.821Z,14.25
2023-05-19T10:49:00.750Z,14.27
2023-05-19T10:50:00.718Z,14.29
2023-05-19T10:51:00.704Z,14.28
2023-05-19T10:52:00.695Z,14.29
2023-05-19T10:53:00.676Z,14.31
2023-05-19T10:54:00.665Z,14.31
2023-05-19T10:55:00.651Z,14.29
2023-05-19T10:56:00.655Z,14.29
2023-05-19T10:57:00.621Z,14.29
2023-05-19T10:58:00.629Z,14.31
2023-05-19T10:59:00.599Z,14.31
2023-05-19T11:00:00.599Z,14.24
2023-05-19T11:01:00.574Z,14.20
2023-05-19T11:02:00.627Z,14.16
2023-05-19T11:03:00.620Z,14.17
2023-05-19T11:04:00.616Z,14.17
2023-05-19T11:05:00.528Z,14.19
2023-05-19T11:06:00.508Z,14.21
2023-05-19T11:07:00.497Z,14.24
2023-05-19T11:08:00.487Z,14.25
2023-05-19T11:09:00.482Z,14.24
2023-05-19T11:10:00.460Z,14.28
2023-05-19T11:11:00.446Z,14.29
2023-05-19T11:12:00.432Z,14.29
2023-05-19T11:13:00.423Z,14.31
2023-05-19T11:14:00.408Z,14.32
2023-05-19T11:15:00.393Z,14.28
2023-05-19T11:16:00.377Z,14.29
2023-05-19T11:17:00.442Z,14.29
2023-05-19T11:18:00.377Z,14.31
2023-05-19T11:19:00.527Z,14.32
2023-05-19T11:20:00.341Z,14.29
2023-05-19T11:21:00.390Z,14.31
2023-05-19T11:22:00.301Z,14.29
2023-05-19T11:23:00.308Z,14.32
2023-05-19T11:24:00.321Z,14.37
2023-05-19T11:25:00.259Z,14.39
2023-05-19T11:26:00.252Z,14.43
2023-05-19T11:27:00.232Z,14.38
2023-05-19T11:28:00.219Z,14.38
2023-05-19T11:29:00.222Z,14.38
2023-05-19T11:30:00.241Z,14.38
2023-05-19T11:31:00.187Z,14.35
2023-05-19T11:32:00.271Z,14.35
2023-05-19T11:33:00.189Z,14.38
2023-05-19T11:34:00.188Z,14.42
2023-05-19T11:35:00.258Z,14.38
2023-05-19T11:36:00.208Z,14.42
2023-05-19T11:37:00.167Z,14.44
2023-05-19T11:38:00.155Z,14.44
2023-05-19T11:39:00.085Z,14.46
2023-05-19T11:40:00.066Z,14.43
2023-05-19T11:41:00.059Z,14.44
2023-05-19T11:42:00.043Z,14.46
2023-05-19T11:43:00.020Z,14.50
2023-05-19T11:44:00.011Z,14.47
2023-05-19T11:45:00.044Z,14.46
2023-05-19T11:46:00.035Z,14.42
2023-05-19T11:46:59.988Z,14.43
2023-05-19T11:48:02.148Z,14.43
2023-05-19T11:48:59.945Z,14.43
2023-05-19T11:49:59.941Z,14.44
2023-05-19T11:50:59.947Z,14.44
2023-05-19T11:51:59.908Z,14.47
2023-05-19T11:52:59.893Z,14.49
2023-05-19T11:53:59.880Z,14.46
2023-05-19T11:54:59.862Z,14.46
2023-05-19T11:55:59.849Z,14.44
2023-05-19T11:56:59.835Z,14.44
2023-05-19T11:58:03.911Z,14.42
2023-05-19T11:58:59.810Z,14.39
2023-05-19T11:59:59.799Z,14.42
2023-05-19T12:00:59.785Z,14.43
2023-05-19T12:01:59.770Z,14.43
2023-05-19T12:02:59.801Z,14.43
2023-05-19T12:03:59.851Z,14.42
2023-05-19T12:04:59.787Z,14.42
2023-05-19T12:05:59.741Z,14.42
2023-05-19T12:06:59.731Z,14.42
2023-05-19T12:07:59.693Z,14.43
2023-05-19T12:08:59.683Z,14.44
2023-05-19T12:09:59.684Z,14.46
2023-05-19T12:10:59.652Z,14.44
2023-05-19T12:11:59.642Z,14.46
2023-05-19T12:12:59.628Z,14.44
2023-05-19T12:13:59.614Z,14.46
2023-05-19T12:14:59.598Z,14.46
2023-05-19T12:15:59.634Z,14.47
2023-05-19T12:16:59.571Z,14.50
2023-05-19T12:17:59.609Z,14.49
2023-05-19T12:18:59.661Z,14.49
2023-05-19T12:19:59.529Z,14.49
2023-05-19T12:20:59.518Z,14.50
2023-05-19T12:21:59.516Z,14.52
2023-05-19T12:22:59.543Z,14.54
2023-05-19T12:23:59.484Z,14.54
2023-05-19T12:24:59.468Z,14.54
2023-05-19T12:25:59.471Z,14.54
2023-05-19T12:26:59.441Z,14.53
2023-05-19T12:27:59.441Z,14.54
2023-05-19T12:28:59.425Z,14.56
2023-05-19T12:29:59.408Z,14.56
2023-05-19T12:30:59.397Z,14.57
2023-05-19T12:31:59.392Z,14.60
2023-05-19T12:32:59.478Z,14.64
2023-05-19T12:33:59.349Z,14.65
2023-05-19T12:34:59.335Z,14.64
2023-05-19T12:35:59.325Z,14.62
2023-05-19T12:36:59.310Z,14.61
2023-05-19T12:37:59.297Z,14.61
2023-05-19T12:38:59.346Z,14.61
2023-05-19T12:39:59.310Z,14.60
2023-05-19T12:40:59.254Z,14.61
2023-05-19T12:41:59.244Z,14.61
2023-05-19T12:42:59.450Z,14.60
2023-05-19T12:43:59.214Z,14.61
2023-05-19T12:45:00.632Z,14.65
2023-05-19T12:45:59.228Z,14.68
2023-05-19T12:46:59.174Z,14.69
2023-05-19T12:47:59.207Z,14.71
2023-05-19T12:48:59.147Z,14.72
2023-05-19T12:49:59.142Z,14.71
2023-05-19T12:50:59.121Z,14.69
2023-05-19T12:52:00.440Z,14.69
2023-05-19T12:52:59.099Z,14.68